createdAt,value
2023-09-04T00:02:53.551Z,84.66
2023-09-04T00:13:46.717Z,84.47
2023-09-04T00:24:47.955Z,83.94
2023-09-04T00:35:31.915Z,83.85
2023-09-04T00:46:38.024Z,84.21
2023-09-04T00:57:36.463Z,84.41
2023-09-04T01:08:13.991Z,84.20
2023-09-04T01:19:07.837Z,84.90
2023-09-04T01:29:55.176Z,84.55
2023-09-04T01:40:44.141Z,84.90
2023-09-04T01:51:20.888Z,85.02
2023-09-04T02:01:25.255Z,84.75
2023-09-04T02:12:13.213Z,84.70
2023-09-04T02:23:00.718Z,84.28
2023-09-04T02:33:48.665Z,84.72
2023-09-04T02:44:17.825Z,84.51
2023-09-04T02:54:59.097Z,84.56
2023-09-04T03:05:37.596Z,84.28
2023-09-04T03:16:47.851Z,84.26
2023-09-04T03:27:39.677Z,84.25
2023-09-04T03:38:26.540Z,84.89
2023-09-04T03:48:42.595Z,85.06
2023-09-04T03:59:09.320Z,84.98
2023-09-04T04:09:50.590Z,85.10
2023-09-04T04:21:06.328Z,85.46
2023-09-04T04:31:53.185Z,85.71
2023-09-04T04:42:39.928Z,85.62
2023-09-04T04:53:27.671Z,85.78
2023-09-04T05:04:00.495Z,85.97
2023-09-04T05:15:06.457Z,85.37
2023-09-04T05:26:15.215Z,84.62
2023-09-04T05:37:04.152Z,84.14
2023-09-04T05:47:08.294Z,83.82
2023-09-04T05:57:35.289Z,83.48
2023-09-04T06:07:39.542Z,82.67
2023-09-04T06:18:26.107Z,81.51
2023-09-04T06:29:21.550Z,79.03
2023-09-04T06:40:05.781Z,77.10
2023-09-04T06:50:38.793Z,74.51
2023-09-04T07:00:54.970Z,73.85
2023-09-04T07:11:59.064Z,74.38
2023-09-04T07:22:20.834Z,73.51
2023-09-04T07:32:46.437Z,73.56
2023-09-04T07:43:02.366Z,71.75
2023-09-04T07:53:49.379Z,70.25
2023-09-04T08:03:55.456Z,69.77
2023-09-04T08:14:00.190Z,69.11
2023-09-04T08:24:04.261Z,66.69
2023-09-04T08:34:28.244Z,64.97
2023-09-04T08:44:40.226Z,64.70
2023-09-04T08:54:48.749Z,65.13
2023-09-04T09:04:53.473Z,63.20
2023-09-04T09:15:01.293Z,62.86
2023-09-04T09:25:08.477Z,62.90
2023-09-04T09:35:20.474Z,62.40
2023-09-04T09:45:33.085Z,62.73
2023-09-04T09:55:37.041Z,62.08
2023-09-04T10:05:44.512Z,61.95
2023-09-04T10:15:52.766Z,61.08
2023-09-04T10:26:08.837Z,61.42
2023-09-04T10:36:13.746Z,62.09
2023-09-04T10:46:18.492Z,61.51
2023-09-04T10:56:23.781Z,63.68
2023-09-04T11:06:28.124Z,64.36
2023-09-04T11:16:50.418Z,62.72
2023-09-04T11:26:54.563Z,63.10
2023-09-04T11:36:58.336Z,61.15
2023-09-04T11:47:02.643Z,60.01
2023-09-04T11:57:16.395Z,60.24
2023-09-04T12:07:20.667Z,60.05
2023-09-04T12:17:24.322Z,59.18
2023-09-04T12:27:31.477Z,59.46
2023-09-04T12:37:36.412Z,61.19
2023-09-04T12:48:14.277Z,59.47
2023-09-04T12:58:29.957Z,58.14
2023-09-04T13:08:33.850Z,58.53
2023-09-04T13:18:39.426Z,58.46
2023-09-04T13:29:03.782Z,57.38
2023-09-04T13:39:08.683Z,56.38
2023-09-04T13:49:12.768Z,57.17
2023-09-04T13:59:19.279Z,56.68
2023-09-04T14:09:23.019Z,57.91
2023-09-04T14:19:27.142Z,59.99
2023-09-04T14:29:31.206Z,63.28
2023-09-04T14:39:35.579Z,63.55
2023-09-04T14:49:39.647Z,61.89
2023-09-04T14:59:44.051Z,61.35
2023-09-04T15:09:59.081Z,63.16
2023-09-04T15:20:02.898Z,62.62
2023-09-04T15:30:09.025Z,62.04
2023-09-04T15:40:14.172Z,62.40
2023-09-04T15:50:17.925Z,63.28
2023-09-04T16:00:22.321Z,64.77
2023-09-04T16:10:26.502Z,66.05
2023-09-04T16:20:44.650Z,66.95
2023-09-04T16:30:57.763Z,68.04
2023-09-04T16:41:02.156Z,68.96
2023-09-04T16:51:07.065Z,69.78
2023-09-04T17:01:22.109Z,71.26
2023-09-04T17:11:31.441Z,72.62
2023-09-04T17:21:37.489Z,73.00
2023-09-04T17:31:55.194Z,73.42
2023-09-04T17:41:59.643Z,74.23
2023-09-04T17:52:16.961Z,74.93
2023-09-04T18:02:21.427Z,75.71
2023-09-04T18:12:36.680Z,76.24
2023-09-04T18:22:48.001Z,76.61
2023-09-04T18:33:32.169Z,77.09
2023-09-04T18:43:39.814Z,78.02
2023-09-04T18:54:19.095Z,78.54
2023-09-04T19:04:27.250Z,78.83
2023-09-04T19:14:52.166Z,79.16
2023-09-04T19:25:06.787Z,79.50
2023-09-04T19:35:15.562Z,79.82
2023-09-04T19:45:31.358Z,80.56
2023-09-04T19:55:52.215Z,81.21
2023-09-04T20:06:20.854Z,81.82
2023-09-04T20:16:41.423Z,82.33
2023-09-04T20:26:52.761Z,82.47
2023-09-04T20:37:33.741Z,82.86
2023-09-04T20:48:48.476Z,82.40
